sensor_id;sensor_type;location;lat;lon;timestamp;P1;durP1;ratioP1;P2;durP2;ratioP2
52434;SDS011;38354;52.892;6.148;2022-09-01T03:01:10;4.97;;;2.45;;
52434;SDS011;38354;52.892;6.148;2022-09-01T03:03:55;3.25;;;2.38;;
52434;SDS011;38354;52.892;6.148;2022-09-01T03:06:23;7.03;;;2.47;;
52434;SDS011;38354;52.892;6.148;2022-09-01T03:08:49;4.72;;;2.03;;
52434;SDS011;38354;52.892;6.148;2022-09-01T03:11:16;5.35;;;2.65;;
52434;SDS011;38354;52.892;6.148;2022-09-01T03:13:43;5.45;;;2.20;;
52434;SDS011;38354;52.892;6.148;2022-09-01T03:16:11;4.43;;;2.20;;
52434;SDS011;38354;52.892;6.148;2022-09-01T03:18:37;2.78;;;2.10;;
52434;SDS011;38354;52.892;6.148;2022-09-01T03:21:04;2.55;;;1.90;;
52434;SDS011;38354;52.892;6.148;2022-09-01T03:23:30;2.97;;;2.03;;
52434;SDS011;38354;52.892;6.148;2022-09-01T03:25:58;3.33;;;2.10;;
52434;SDS011;38354;52.892;6.148;2022-09-01T03:28:25;3.25;;;2.00;;
52434;SDS011;38354;52.892;6.148;2022-09-01T03:30:52;5.10;;;2.10;;
52434;SDS011;38354;52.892;6.148;2022-09-01T03:33:20;4.18;;;1.90;;
52434;SDS011;38354;52.892;6.148;2022-09-01T03:35:47;4.35;;;2.38;;
52434;SDS011;38354;52.892;6.148;2022-09-01T03:38:14;2.75;;;1.90;;
52434;SDS011;38354;52.892;6.148;2022-09-01T03:40:49;3.10;;;1.90;;
52434;SDS011;38354;52.892;6.148;2022-09-01T03:43:17;3.28;;;1.92;;
52434;SDS011;38354;52.892;6.148;2022-09-01T03:45:47;3.42;;;1.73;;
52434;SDS011;38354;52.892;6.148;2022-09-01T03:48:13;2.88;;;1.55;;
52434;SDS011;38354;52.892;6.148;2022-09-01T03:50:40;4.65;;;1.92;;
52434;SDS011;38354;52.892;6.148;2022-09-01T03:53:10;6.82;;;1.90;;
52434;SDS011;38354;52.892;6.148;2022-09-01T03:55:37;3.22;;;2.00;;
52434;SDS011;38354;52.892;6.148;2022-09-01T03:58:04;3.88;;;2.08;;
52434;SDS011;38354;52.892;6.148;2022-09-01T04:03:24;3.28;;;2.20;;
52434;SDS011;38354;52.892;6.148;2022-09-01T04:05:52;4.35;;;2.10;;
52434;SDS011;38354;52.892;6.148;2022-09-01T04:08:19;5.22;;;2.38;;
52434;SDS011;38354;52.892;6.148;2022-09-01T04:10:49;4.68;;;2.28;;
52434;SDS011;38354;52.892;6.148;2022-09-01T04:13:35;3.20;;;2.25;;
52434;SDS011;38354;52.892;6.148;2022-09-01T04:16:03;5.55;;;2.15;;
52434;SDS011;38354;52.892;6.148;2022-09-01T04:18:52;7.50;;;2.30;;
52434;SDS011;38354;52.892;6.148;2022-09-01T04:21:18;4.55;;;1.95;;
52434;SDS011;38354;52.892;6.148;2022-09-01T04:23:44;3.30;;;2.38;;
52434;SDS011;38354;52.892;6.148;2022-09-01T04:26:11;5.70;;;3.05;;
52434;SDS011;38354;52.892;6.148;2022-09-01T04:28:48;3.83;;;2.20;;
52434;SDS011;38354;52.892;6.148;2022-09-01T04:31:19;6.43;;;2.22;;
52434;SDS011;38354;52.892;6.148;2022-09-01T04:33:47;6.00;;;2.42;;
52434;SDS011;38354;52.892;6.148;2022-09-01T04:36:26;5.70;;;2.28;;
52434;SDS011;38354;52.892;6.148;2022-09-01T04:38:59;7.35;;;2.53;;
52434;SDS011;38354;52.892;6.148;2022-09-01T04:41:28;4.07;;;2.50;;
52434;SDS011;38354;52.892;6.148;2022-09-01T04:43:57;4.35;;;2.08;;
52434;SDS011;38354;52.892;6.148;2022-09-01T04:46:29;3.10;;;2.10;;
52434;SDS011;38354;52.892;6.148;2022-09-01T04:48:59;5.07;;;2.03;;
52434;SDS011;38354;52.892;6.148;2022-09-01T04:51:32;4.82;;;2.20;;
52434;SDS011;38354;52.892;6.148;2022-09-01T04:53:58;5.35;;;2.40;;
52434;SDS011;38354;52.892;6.148;2022-09-01T04:56:25;6.07;;;2.70;;
52434;SDS011;38354;52.892;6.148;2022-09-01T04:58:52;3.65;;;2.47;;
52434;SDS011;38354;52.892;6.148;2022-09-01T05:01:21;5.10;;;2.25;;
52434;SDS011;38354;52.892;6.148;2022-09-01T05:03:49;4.07;;;2.20;;
52434;SDS011;38354;52.892;6.148;2022-09-01T05:06:23;6.55;;;2.60;;
52434;SDS011;38354;52.892;6.148;2022-09-01T05:08:49;3.45;;;2.40;;
52434;SDS011;38354;52.892;6.148;2022-09-01T05:11:16;4.95;;;2.30;;
52434;SDS011;38354;52.892;6.148;2022-09-01T05:13:42;5.38;;;2.55;;
52434;SDS011;38354;52.892;6.148;2022-09-01T05:16:10;3.28;;;2.40;;
52434;SDS011;38354;52.892;6.148;2022-09-01T05:18:40;8.32;;;3.22;;
52434;SDS011;38354;52.892;6.148;2022-09-01T05:21:10;6.10;;;2.50;;
52434;SDS011;38354;52.892;6.148;2022-09-01T05:23:37;3.72;;;2.20;;
52434;SDS011;38354;52.892;6.148;2022-09-01T05:26:04;5.32;;;2.85;;
52434;SDS011;38354;52.892;6.148;2022-09-01T05:28:41;4.32;;;2.58;;
52434;SDS011;38354;52.892;6.148;2022-09-01T05:31:07;5.38;;;2.47;;
52434;SDS011;38354;52.892;6.148;2022-09-01T05:33:34;6.47;;;2.53;;
52434;SDS011;38354;52.892;6.148;2022-09-01T05:36:01;5.28;;;2.55;;
52434;SDS011;38354;52.892;6.148;2022-09-01T05:38:32;5.00;;;2.40;;
52434;SDS011;38354;52.892;6.148;2022-09-01T05:41:02;5.25;;;2.30;;
52434;SDS011;38354;52.892;6.148;2022-09-01T05:43:31;4.50;;;2.50;;
52434;SDS011;38354;52.892;6.148;2022-09-01T05:45:57;4.72;;;2.35;;
52434;SDS011;38354;52.892;6.148;2022-09-01T05:48:25;4.07;;;2.70;;
52434;SDS011;38354;52.892;6.148;2022-09-01T05:50:56;4.60;;;2.20;;
52434;SDS011;38354;52.892;6.148;2022-09-01T05:53:24;4.18;;;2.40;;
52434;SDS011;38354;52.892;6.148;2022-09-01T05:55:51;6.18;;;2.60;;
52434;SDS011;38354;52.892;6.148;2022-09-01T05:58:25;3.90;;;2.08;;
52434;SDS011;38354;52.892;6.148;2022-09-01T06:00:52;4.82;;;2.22;;
52434;SDS011;38354;52.892;6.148;2022-09-01T06:03:23;3.85;;;2.40;;
52434;SDS011;38354;52.892;6.148;2022-09-01T06:05:51;5.03;;;2.67;;
52434;SDS011;38354;52.892;6.148;2022-09-01T06:08:23;2.80;;;2.00;;
52434;SDS011;38354;52.892;6.148;2022-09-01T06:10:53;3.83;;;2.20;;
52434;SDS011;38354;52.892;6.148;2022-09-01T06:13:19;3.83;;;2.15;;
52434;SDS011;38354;52.892;6.148;2022-09-01T06:15:49;5.53;;;2.22;;
52434;SDS011;38354;52.892;6.148;2022-09-01T06:18:18;5.47;;;2.55;;
52434;SDS011;38354;52.892;6.148;2022-09-01T06:20:46;4.88;;;2.42;;
52434;SDS011;38354;52.892;6.148;2022-09-01T06:23:14;4.97;;;2.15;;
52434;SDS011;38354;52.892;6.148;2022-09-01T06:25:41;5.18;;;2.17;;
52434;SDS011;38354;52.892;6.148;2022-09-01T06:28:15;5.28;;;2.47;;
52434;SDS011;38354;52.892;6.148;2022-09-01T06:30:44;5.15;;;2.08;;
52434;SDS011;38354;52.892;6.148;2022-09-01T06:33:12;5.15;;;2.20;;
52434;SDS011;38354;52.892;6.148;2022-09-01T06:35:38;5.15;;;2.35;;
52434;SDS011;38354;52.892;6.148;2022-09-01T06:38:06;3.35;;;2.00;;
52434;SDS011;38354;52.892;6.148;2022-09-01T06:40:34;11.20;;;3.08;;
52434;SDS011;38354;52.892;6.148;2022-09-01T06:43:00;3.40;;;1.90;;
52434;SDS011;38354;52.892;6.148;2022-09-01T06:45:32;4.60;;;1.70;;
52434;SDS011;38354;52.892;6.148;2022-09-01T06:47:59;4.70;;;1.80;;
52434;SDS011;38354;52.892;6.148;2022-09-01T06:50:25;3.80;;;2.05;;
52434;SDS011;38354;52.892;6.148;2022-09-01T06:52:52;4.45;;;2.63;;
52434;SDS011;38354;52.892;6.148;2022-09-01T06:55:35;3.85;;;1.90;;
52434;SDS011;38354;52.892;6.148;2022-09-01T06:58:06;2.95;;;1.90;;
52434;SDS011;38354;52.892;6.148;2022-09-01T07:00:35;4.13;;;2.05;;
52434;SDS011;38354;52.892;6.148;2022-09-01T07:03:07;2.72;;;1.80;;
52434;SDS011;38354;52.892;6.148;2022-09-01T07:05:42;3.90;;;2.00;;
52434;SDS011;38354;52.892;6.148;2022-09-01T07:08:11;7.47;;;1.92;;
52434;SDS011;38354;52.892;6.148;2022-09-01T07:10:50;3.88;;;1.98;;
52434;SDS011;38354;52.892;6.148;2022-09-01T07:13:19;4.15;;;1.80;;
52434;SDS011;38354;52.892;6.148;2022-09-01T07:15:50;4.70;;;1.90;;
52434;SDS011;38354;52.892;6.148;2022-09-01T07:18:23;2.95;;;1.85;;
52434;SDS011;38354;52.892;6.148;2022-09-01T07:20:50;4.32;;;1.83;;
52434;SDS011;38354;52.892;6.148;2022-09-01T07:23:18;5.95;;;2.00;;
52434;SDS011;38354;52.892;6.148;2022-09-01T07:25:45;2.63;;;1.70;;
52434;SDS011;38354;52.892;6.148;2022-09-01T07:28:12;3.90;;;1.75;;
52434;SDS011;38354;52.892;6.148;2022-09-01T07:30:43;4.03;;;2.15;;
52434;SDS011;38354;52.892;6.148;2022-09-01T07:33:12;3.17;;;1.80;;
52434;SDS011;38354;52.892;6.148;2022-09-01T07:35:40;2.88;;;1.60;;
52434;SDS011;38354;52.892;6.148;2022-09-01T07:38:07;3.85;;;1.90;;
52434;SDS011;38354;52.892;6.148;2022-09-01T07:40:34;3.22;;;1.60;;
52434;SDS011;38354;52.892;6.148;2022-09-01T07:43:06;4.93;;;1.98;;
52434;SDS011;38354;52.892;6.148;2022-09-01T07:45:41;4.63;;;1.50;;
52434;SDS011;38354;52.892;6.148;2022-09-01T07:48:10;3.35;;;1.50;;
52434;SDS011;38354;52.892;6.148;2022-09-01T07:50:39;2.60;;;1.38;;
52434;SDS011;38354;52.892;6.148;2022-09-01T07:53:11;5.37;;;1.67;;
52434;SDS011;38354;52.892;6.148;2022-09-01T07:55:52;3.58;;;1.50;;
52434;SDS011;38354;52.892;6.148;2022-09-01T07:58:20;3.28;;;1.50;;
52434;SDS011;38354;52.892;6.148;2022-09-01T08:00:50;3.10;;;1.38;;
52434;SDS011;38354;52.892;6.148;2022-09-01T08:03:18;4.03;;;1.50;;
52434;SDS011;38354;52.892;6.148;2022-09-01T08:05:45;3.30;;;1.50;;
52434;SDS011;38354;52.892;6.148;2022-09-01T08:08:12;5.50;;;1.40;;
52434;SDS011;38354;52.892;6.148;2022-09-01T08:10:39;3.42;;;1.75;;
52434;SDS011;38354;52.892;6.148;2022-09-01T08:13:06;3.88;;;1.23;;
52434;SDS011;38354;52.892;6.148;2022-09-01T08:15:32;2.53;;;1.05;;
52434;SDS011;38354;52.892;6.148;2022-09-01T08:17:58;3.38;;;1.30;;
52434;SDS011;38354;52.892;6.148;2022-09-01T08:20:23;3.17;;;1.20;;
52434;SDS011;38354;52.892;6.148;2022-09-01T08:22:49;5.05;;;1.20;;
52434;SDS011;38354;52.892;6.148;2022-09-01T08:25:15;2.95;;;1.40;;
52434;SDS011;38354;52.892;6.148;2022-09-01T08:27:40;5.55;;;1.30;;
52434;SDS011;38354;52.892;6.148;2022-09-01T08:30:07;2.63;;;1.10;;
52434;SDS011;38354;52.892;6.148;2022-09-01T08:32:35;2.30;;;1.02;;
52434;SDS011;38354;52.892;6.148;2022-09-01T08:35:01;4.50;;;1.17;;
52434;SDS011;38354;52.892;6.148;2022-09-01T08:37:29;2.40;;;1.20;;
52434;SDS011;38354;52.892;6.148;2022-09-01T08:39:56;3.55;;;1.52;;
52434;SDS011;38354;52.892;6.148;2022-09-01T08:45:14;4.38;;;1.15;;
52434;SDS011;38354;52.892;6.148;2022-09-01T08:47:45;9.80;;;1.25;;
52434;SDS011;38354;52.892;6.148;2022-09-01T08:50:11;5.38;;;1.10;;
52434;SDS011;38354;52.892;6.148;2022-09-01T08:52:39;2.78;;;0.90;;
52434;SDS011;38354;52.892;6.148;2022-09-01T08:55:14;2.63;;;0.80;;
52434;SDS011;38354;52.892;6.148;2022-09-01T08:57:51;3.15;;;1.10;;
52434;SDS011;38354;52.892;6.148;2022-09-01T09:00:23;2.75;;;1.20;;
52434;SDS011;38354;52.892;6.148;2022-09-01T09:08:57;4.85;;;0.93;;
52434;SDS011;38354;52.892;6.148;2022-09-01T09:11:40;3.38;;;0.98;;
52434;SDS011;38354;52.892;6.148;2022-09-01T09:17:16;2.42;;;0.80;;
52434;SDS011;38354;52.892;6.148;2022-09-01T09:19:45;3.03;;;1.15;;
52434;SDS011;38354;52.892;6.148;2022-09-01T09:22:12;1.90;;;0.70;;
52434;SDS011;38354;52.892;6.148;2022-09-01T09:27:32;2.25;;;0.80;;
52434;SDS011;38354;52.892;6.148;2022-09-01T09:30:14;1.40;;;0.80;;
52434;SDS011;38354;52.892;6.148;2022-09-01T09:36:14;3.17;;;0.68;;
52434;SDS011;38354;52.892;6.148;2022-09-01T09:38:44;1.52;;;0.60;;
52434;SDS011;38354;52.892;6.148;2022-09-01T09:43:42;3.38;;;0.80;;
52434;SDS011;38354;52.892;6.148;2022-09-01T09:46:32;2.45;;;0.85;;
52434;SDS011;38354;52.892;6.148;2022-09-01T09:54:34;2.20;;;0.70;;
52434;SDS011;38354;52.892;6.148;2022-09-01T10:02:39;4.90;;;0.93;;
52434;SDS011;38354;52.892;6.148;2022-09-01T10:08:13;3.28;;;0.80;;
52434;SDS011;38354;52.892;6.148;2022-09-01T10:10:51;1.58;;;0.60;;
52434;SDS011;38354;52.892;6.148;2022-09-01T10:13:19;2.17;;;0.77;;
52434;SDS011;38354;52.892;6.148;2022-09-01T10:15:51;2.85;;;0.55;;
52434;SDS011;38354;52.892;6.148;2022-09-01T10:18:20;1.67;;;0.60;;
52434;SDS011;38354;52.892;6.148;2022-09-01T10:20:52;1.70;;;0.70;;
52434;SDS011;38354;52.892;6.148;2022-09-01T10:23:27;3.15;;;0.50;;
52434;SDS011;38354;52.892;6.148;2022-09-01T10:26:16;1.73;;;0.70;;
52434;SDS011;38354;52.892;6.148;2022-09-01T10:28:46;2.17;;;0.70;;
52434;SDS011;38354;52.892;6.148;2022-09-01T10:31:20;1.38;;;0.60;;
52434;SDS011;38354;52.892;6.148;2022-09-01T10:33:47;1.52;;;0.70;;
52434;SDS011;38354;52.892;6.148;2022-09-01T10:36:14;1.23;;;0.60;;
52434;SDS011;38354;52.892;6.148;2022-09-01T10:38:40;5.57;;;0.75;;
52434;SDS011;38354;52.892;6.148;2022-09-01T10:41:07;2.47;;;0.70;;
52434;SDS011;38354;52.892;6.148;2022-09-01T10:48:46;1.55;;;0.50;;
52434;SDS011;38354;52.892;6.148;2022-09-01T10:53:47;4.85;;;0.80;;
52434;SDS011;38354;52.892;6.148;2022-09-01T10:58:59;3.10;;;0.75;;
52434;SDS011;38354;52.892;6.148;2022-09-01T11:04:06;3.60;;;0.75;;
52434;SDS011;38354;52.892;6.148;2022-09-01T11:14:25;1.63;;;0.50;;
52434;SDS011;38354;52.892;6.148;2022-09-01T11:19:44;1.95;;;0.70;;
52434;SDS011;38354;52.892;6.148;2022-09-01T11:30:15;3.10;;;0.60;;
52434;SDS011;38354;52.892;6.148;2022-09-01T11:33:14;1.73;;;0.60;;
52434;SDS011;38354;52.892;6.148;2022-09-01T11:36:03;2.47;;;0.80;;
52434;SDS011;38354;52.892;6.148;2022-09-01T11:38:36;1.98;;;0.70;;
52434;SDS011;38354;52.892;6.148;2022-09-01T11:41:23;1.25;;;0.60;;
52434;SDS011;38354;52.892;6.148;2022-09-01T11:43:53;2.75;;;0.95;;
52434;SDS011;38354;52.892;6.148;2022-09-01T11:46:24;0.63;;;0.50;;
52434;SDS011;38354;52.892;6.148;2022-09-01T11:48:53;3.25;;;0.77;;
52434;SDS011;38354;52.892;6.148;2022-09-01T11:51:19;1.65;;;0.52;;
52434;SDS011;38354;52.892;6.148;2022-09-01T11:53:45;1.15;;;0.40;;
52434;SDS011;38354;52.892;6.148;2022-09-01T11:56:15;1.17;;;0.70;;
52434;SDS011;38354;52.892;6.148;2022-09-01T11:58:44;2.55;;;0.60;;
52434;SDS011;38354;52.892;6.148;2022-09-01T12:01:15;1.85;;;0.70;;
52434;SDS011;38354;52.892;6.148;2022-09-01T12:03:43;1.90;;;0.65;;
52434;SDS011;38354;52.892;6.148;2022-09-01T12:06:21;5.15;;;0.63;;
52434;SDS011;38354;52.892;6.148;2022-09-01T12:08:59;2.60;;;0.60;;
52434;SDS011;38354;52.892;6.148;2022-09-01T12:11:33;1.65;;;0.50;;
52434;SDS011;38354;52.892;6.148;2022-09-01T12:14:04;1.55;;;0.70;;
52434;SDS011;38354;52.892;6.148;2022-09-01T12:16:32;2.30;;;0.50;;
52434;SDS011;38354;52.892;6.148;2022-09-01T12:19:02;4.00;;;0.60;;
52434;SDS011;38354;52.892;6.148;2022-09-01T12:21:33;2.97;;;0.60;;
52434;SDS011;38354;52.892;6.148;2022-09-01T12:26:45;2.15;;;0.70;;
52434;SDS011;38354;52.892;6.148;2022-09-01T12:29:13;2.47;;;0.68;;
52434;SDS011;38354;52.892;6.148;2022-09-01T12:31:40;2.65;;;0.60;;
52434;SDS011;38354;52.892;6.148;2022-09-01T12:39:50;7.03;;;0.60;;
52434;SDS011;38354;52.892;6.148;2022-09-01T12:45:00;3.58;;;0.50;;
52434;SDS011;38354;52.892;6.148;2022-09-01T12:50:04;2.80;;;0.70;;
52434;SDS011;38354;52.892;6.148;2022-09-01T12:52:43;1.98;;;0.65;;
52434;SDS011;38354;52.892;6.148;2022-09-01T12:55:16;2.08;;;0.57;;
52434;SDS011;38354;52.892;6.148;2022-09-01T12:57:47;1.80;;;0.75;;
52434;SDS011;38354;52.892;6.148;2022-09-01T13:02:50;4.68;;;0.60;;
52434;SDS011;38354;52.892;6.148;2022-09-01T13:05:30;3.55;;;0.50;;
52434;SDS011;38354;52.892;6.148;2022-09-01T13:08:17;2.88;;;0.70;;
52434;SDS011;38354;52.892;6.148;2022-09-01T13:10:45;9.35;;;1.08;;
52434;SDS011;38354;52.892;6.148;2022-09-01T13:13:17;3.28;;;1.00;;
52434;SDS011;38354;52.892;6.148;2022-09-01T13:15:45;3.05;;;0.60;;
52434;SDS011;38354;52.892;6.148;2022-09-01T13:18:14;4.20;;;0.50;;
52434;SDS011;38354;52.892;6.148;2022-09-01T13:20:40;2.17;;;0.50;;
52434;SDS011;38354;52.892;6.148;2022-09-01T13:23:06;4.85;;;1.10;;
52434;SDS011;38354;52.892;6.148;2022-09-01T13:25:33;3.03;;;0.60;;
52434;SDS011;38354;52.892;6.148;2022-09-01T13:27:59;3.38;;;0.63;;
52434;SDS011;38354;52.892;6.148;2022-09-01T13:30:27;17.30;;;1.83;;
52434;SDS011;38354;52.892;6.148;2022-09-01T13:32:54;4.10;;;0.60;;
52434;SDS011;38354;52.892;6.148;2022-09-01T13:35:21;1.70;;;0.63;;
52434;SDS011;38354;52.892;6.148;2022-09-01T13:37:47;2.03;;;0.60;;
52434;SDS011;38354;52.892;6.148;2022-09-01T13:40:13;3.70;;;0.73;;
52434;SDS011;38354;52.892;6.148;2022-09-01T13:42:51;4.35;;;0.60;;
52434;SDS011;38354;52.892;6.148;2022-09-01T13:45:19;2.15;;;0.50;;
52434;SDS011;38354;52.892;6.148;2022-09-01T13:47:48;2.20;;;0.60;;
52434;SDS011;38354;52.892;6.148;2022-09-01T13:50:15;2.47;;;1.05;;
52434;SDS011;38354;52.892;6.148;2022-09-01T13:52:44;1.60;;;0.50;;
52434;SDS011;38354;52.892;6.148;2022-09-01T13:55:13;4.30;;;0.70;;
52434;SDS011;38354;52.892;6.148;2022-09-01T13:57:49;3.53;;;0.47;;
52434;SDS011;38354;52.892;6.148;2022-09-01T14:00:19;2.40;;;0.55;;
52434;SDS011;38354;52.892;6.148;2022-09-01T14:02:49;2.22;;;0.57;;
52434;SDS011;38354;52.892;6.148;2022-09-01T14:05:27;5.43;;;0.60;;
52434;SDS011;38354;52.892;6.148;2022-09-01T14:07:57;3.25;;;0.70;;
52434;SDS011;38354;52.892;6.148;2022-09-01T14:10:23;2.33;;;0.70;;
52434;SDS011;38354;52.892;6.148;2022-09-01T14:12:50;3.72;;;0.70;;
52434;SDS011;38354;52.892;6.148;2022-09-01T14:15:17;2.85;;;0.70;;
52434;SDS011;38354;52.892;6.148;2022-09-01T14:17:44;2.40;;;0.60;;
52434;SDS011;38354;52.892;6.148;2022-09-01T14:20:13;1.27;;;0.45;;
52434;SDS011;38354;52.892;6.148;2022-09-01T14:22:42;2.17;;;0.70;;
52434;SDS011;38354;52.892;6.148;2022-09-01T14:25:08;2.13;;;0.68;;
52434;SDS011;38354;52.892;6.148;2022-09-01T14:27:34;5.90;;;0.60;;
52434;SDS011;38354;52.892;6.148;2022-09-01T14:30:00;1.20;;;0.40;;
52434;SDS011;38354;52.892;6.148;2022-09-01T14:32:26;1.40;;;0.50;;
52434;SDS011;38354;52.892;6.148;2022-09-01T14:34:53;3.67;;;0.50;;
52434;SDS011;38354;52.892;6.148;2022-09-01T14:37:20;2.75;;;0.70;;
52434;SDS011;38354;52.892;6.148;2022-09-01T14:39:48;2.42;;;0.60;;
52434;SDS011;38354;52.892;6.148;2022-09-01T14:42:18;3.72;;;0.50;;
52434;SDS011;38354;52.892;6.148;2022-09-01T14:44:45;1.27;;;0.60;;
52434;SDS011;38354;52.892;6.148;2022-09-01T14:47:12;3.72;;;0.95;;
52434;SDS011;38354;52.892;6.148;2022-09-01T14:49:38;2.33;;;0.50;;
52434;SDS011;38354;52.892;6.148;2022-09-01T14:52:05;1.52;;;0.60;;
52434;SDS011;38354;52.892;6.148;2022-09-01T14:54:33;2.63;;;0.70;;
52434;SDS011;38354;52.892;6.148;2022-09-01T14:56:59;2.00;;;0.60;;
52434;SDS011;38354;52.892;6.148;2022-09-01T14:59:25;2.47;;;0.60;;
52434;SDS011;38354;52.892;6.148;2022-09-01T15:01:51;1.23;;;0.60;;
52434;SDS011;38354;52.892;6.148;2022-09-01T15:04:17;1.27;;;0.50;;
52434;SDS011;38354;52.892;6.148;2022-09-01T15:06:43;2.70;;;0.70;;
52434;SDS011;38354;52.892;6.148;2022-09-01T15:09:09;4.53;;;0.60;;
52434;SDS011;38354;52.892;6.148;2022-09-01T15:11:34;2.90;;;0.50;;
52434;SDS011;38354;52.892;6.148;2022-09-01T15:14:00;1.65;;;0.63;;
52434;SDS011;38354;52.892;6.148;2022-09-01T15:16:26;2.22;;;0.70;;
52434;SDS011;38354;52.892;6.148;2022-09-01T15:18:52;4.47;;;0.65;;
52434;SDS011;38354;52.892;6.148;2022-09-01T15:21:22;3.35;;;0.60;;
52434;SDS011;38354;52.892;6.148;2022-09-01T15:23:50;1.73;;;0.60;;
52434;SDS011;38354;52.892;6.148;2022-09-01T15:26:18;3.33;;;0.50;;
52434;SDS011;38354;52.892;6.148;2022-09-01T15:28:44;2.75;;;0.80;;
52434;SDS011;38354;52.892;6.148;2022-09-01T15:31:12;3.35;;;0.90;;
52434;SDS011;38354;52.892;6.148;2022-09-01T15:33:40;2.95;;;0.60;;
52434;SDS011;38354;52.892;6.148;2022-09-01T15:36:06;2.38;;;0.60;;
52434;SDS011;38354;52.892;6.148;2022-09-01T15:38:32;1.90;;;0.80;;
52434;SDS011;38354;52.892;6.148;2022-09-01T15:40:58;2.00;;;0.50;;
52434;SDS011;38354;52.892;6.148;2022-09-01T15:43:28;2.78;;;0.68;;
52434;SDS011;38354;52.892;6.148;2022-09-01T15:45:55;1.17;;;0.52;;
52434;SDS011;38354;52.892;6.148;2022-09-01T15:48:22;3.95;;;0.50;;
52434;SDS011;38354;52.892;6.148;2022-09-01T15:50:49;1.95;;;0.80;;
52434;SDS011;38354;52.892;6.148;2022-09-01T15:53:15;3.75;;;0.77;;
52434;SDS011;38354;52.892;6.148;2022-09-01T15:55:44;4.43;;;0.90;;
52434;SDS011;38354;52.892;6.148;2022-09-01T15:58:12;2.78;;;0.60;;
52434;SDS011;38354;52.892;6.148;2022-09-01T16:00:40;3.78;;;0.70;;
52434;SDS011;38354;52.892;6.148;2022-09-01T16:03:07;4.45;;;0.50;;
52434;SDS011;38354;52.892;6.148;2022-09-01T16:05:34;3.03;;;0.50;;
52434;SDS011;38354;52.892;6.148;2022-09-01T16:08:02;1.92;;;0.65;;
52434;SDS011;38354;52.892;6.148;2022-09-01T16:10:33;3.95;;;0.70;;
52434;SDS011;38354;52.892;6.148;2022-09-01T16:12:59;2.97;;;0.65;;
52434;SDS011;38354;52.892;6.148;2022-09-01T16:15:25;2.20;;;0.60;;
52434;SDS011;38354;52.892;6.148;2022-09-01T16:23:38;1.23;;;0.55;;
52434;SDS011;38354;52.892;6.148;2022-09-01T16:26:13;5.28;;;0.60;;
52434;SDS011;38354;52.892;6.148;2022-09-01T16:28:44;2.15;;;0.60;;
52434;SDS011;38354;52.892;6.148;2022-09-01T16:31:16;1.40;;;0.50;;
52434;SDS011;38354;52.892;6.148;2022-09-01T16:38:54;2.53;;;0.52;;
52434;SDS011;38354;52.892;6.148;2022-09-01T16:42:02;5.60;;;0.75;;
52434;SDS011;38354;52.892;6.148;2022-09-01T16:45:06;1.88;;;0.60;;
52434;SDS011;38354;52.892;6.148;2022-09-01T16:47:42;2.08;;;0.40;;
52434;SDS011;38354;52.892;6.148;2022-09-01T16:50:22;2.53;;;0.60;;
52434;SDS011;38354;52.892;6.148;2022-09-01T16:58:03;2.67;;;0.90;;
52434;SDS011;38354;52.892;6.148;2022-09-01T17:06:20;1.90;;;0.50;;
52434;SDS011;38354;52.892;6.148;2022-09-01T17:09:09;1.23;;;0.50;;
52434;SDS011;38354;52.892;6.148;2022-09-01T17:11:42;2.25;;;0.60;;
52434;SDS011;38354;52.892;6.148;2022-09-01T17:14:13;3.60;;;0.85;;
52434;SDS011;38354;52.892;6.148;2022-09-01T17:16:55;2.08;;;0.75;;
52434;SDS011;38354;52.892;6.148;2022-09-01T17:19:30;1.20;;;0.60;;
52434;SDS011;38354;52.892;6.148;2022-09-01T17:22:05;2.75;;;0.90;;
52434;SDS011;38354;52.892;6.148;2022-09-01T17:24:36;1.90;;;0.80;;
52434;SDS011;38354;52.892;6.148;2022-09-01T17:27:04;1.20;;;0.60;;
52434;SDS011;38354;52.892;6.148;2022-09-01T17:29:41;3.92;;;0.43;;
52434;SDS011;38354;52.892;6.148;2022-09-01T17:37:23;1.67;;;0.63;;
52434;SDS011;38354;52.892;6.148;2022-09-01T17:42:30;3.60;;;0.63;;
52434;SDS011;38354;52.892;6.148;2022-09-01T17:45:16;1.52;;;0.60;;
52434;SDS011;38354;52.892;6.148;2022-09-01T17:47:48;3.42;;;0.80;;
52434;SDS011;38354;52.892;6.148;2022-09-01T17:53:11;2.58;;;1.20;;
52434;SDS011;38354;52.892;6.148;2022-09-01T17:55:40;3.92;;;0.68;;
52434;SDS011;38354;52.892;6.148;2022-09-01T18:01:03;2.58;;;0.55;;
52434;SDS011;38354;52.892;6.148;2022-09-01T18:03:48;2.25;;;0.60;;
52434;SDS011;38354;52.892;6.148;2022-09-01T18:06:49;1.35;;;0.60;;
52434;SDS011;38354;52.892;6.148;2022-09-01T18:09:23;2.38;;;0.77;;
52434;SDS011;38354;52.892;6.148;2022-09-01T18:11:58;2.03;;;0.60;;
52434;SDS011;38354;52.892;6.148;2022-09-01T18:17:32;2.33;;;0.73;;
52434;SDS011;38354;52.892;6.148;2022-09-01T18:20:06;2.22;;;0.60;;
52434;SDS011;38354;52.892;6.148;2022-09-01T18:22:46;2.67;;;0.70;;
52434;SDS011;38354;52.892;6.148;2022-09-01T18:25:18;2.60;;;0.73;;
52434;SDS011;38354;52.892;6.148;2022-09-01T18:27:46;1.55;;;0.73;;
52434;SDS011;38354;52.892;6.148;2022-09-01T18:30:13;4.93;;;0.70;;
52434;SDS011;38354;52.892;6.148;2022-09-01T18:32:44;3.65;;;0.95;;
52434;SDS011;38354;52.892;6.148;2022-09-01T18:38:01;3.92;;;0.68;;
52434;SDS011;38354;52.892;6.148;2022-09-01T18:40:49;9.48;;;1.55;;
52434;SDS011;38354;52.892;6.148;2022-09-01T18:46:08;3.08;;;0.75;;
52434;SDS011;38354;52.892;6.148;2022-09-01T18:49:12;2.35;;;1.00;;
52434;SDS011;38354;52.892;6.148;2022-09-01T18:54:45;2.72;;;0.82;;
52434;SDS011;38354;52.892;6.148;2022-09-01T18:57:21;4.07;;;1.23;;
52434;SDS011;38354;52.892;6.148;2022-09-01T19:05:32;4.50;;;0.90;;
52434;SDS011;38354;52.892;6.148;2022-09-01T19:08:13;3.97;;;1.63;;
52434;SDS011;38354;52.892;6.148;2022-09-01T19:10:49;6.40;;;1.20;;
52434;SDS011;38354;52.892;6.148;2022-09-01T19:16:51;5.35;;;0.93;;
52434;SDS011;38354;52.892;6.148;2022-09-01T19:21:54;2.63;;;1.05;;
52434;SDS011;38354;52.892;6.148;2022-09-01T19:27:10;3.88;;;0.80;;
52434;SDS011;38354;52.892;6.148;2022-09-01T19:29:45;6.55;;;1.17;;
52434;SDS011;38354;52.892;6.148;2022-09-01T19:32:16;6.05;;;0.90;;
52434;SDS011;38354;52.892;6.148;2022-09-01T19:34:49;8.70;;;0.98;;
52434;SDS011;38354;52.892;6.148;2022-09-01T19:37:42;6.65;;;0.90;;
52434;SDS011;38354;52.892;6.148;2022-09-01T19:40:11;4.20;;;1.00;;
52434;SDS011;38354;52.892;6.148;2022-09-01T19:50:52;2.17;;;0.80;;
52434;SDS011;38354;52.892;6.148;2022-09-01T19:59:06;3.93;;;0.87;;
52434;SDS011;38354;52.892;6.148;2022-09-01T20:06:53;3.63;;;0.73;;
52434;SDS011;38354;52.892;6.148;2022-09-01T20:17:27;3.08;;;0.77;;
52434;SDS011;38354;52.892;6.148;2022-09-01T20:20:00;2.33;;;0.70;;
52434;SDS011;38354;52.892;6.148;2022-09-01T20:25:12;6.25;;;0.80;;
52434;SDS011;38354;52.892;6.148;2022-09-01T20:27:49;1.55;;;0.70;;
52434;SDS011;38354;52.892;6.148;2022-09-01T20:30:29;2.10;;;0.90;;
52434;SDS011;38354;52.892;6.148;2022-09-01T20:33:09;3.22;;;1.00;;
52434;SDS011;38354;52.892;6.148;2022-09-01T20:35:58;3.00;;;1.10;;
52434;SDS011;38354;52.892;6.148;2022-09-01T20:41:55;4.68;;;1.38;;
52434;SDS011;38354;52.892;6.148;2022-09-01T20:47:29;2.72;;;0.85;;
52434;SDS011;38354;52.892;6.148;2022-09-01T20:49:56;3.30;;;0.93;;
52434;SDS011;38354;52.892;6.148;2022-09-01T21:00:32;2.55;;;1.13;;
52434;SDS011;38354;52.892;6.148;2022-09-01T21:03:57;6.18;;;1.40;;
52434;SDS011;38354;52.892;6.148;2022-09-01T21:06:52;5.55;;;1.20;;
52434;SDS011;38354;52.892;6.148;2022-09-01T21:09:27;2.67;;;0.90;;
52434;SDS011;38354;52.892;6.148;2022-09-01T21:15:33;3.95;;;1.13;;
52434;SDS011;38354;52.892;6.148;2022-09-01T21:21:04;2.67;;;1.00;;
52434;SDS011;38354;52.892;6.148;2022-09-01T21:23:34;4.20;;;0.90;;
52434;SDS011;38354;52.892;6.148;2022-09-01T21:25:59;3.72;;;1.20;;
52434;SDS011;38354;52.892;6.148;2022-09-01T21:28:25;3.10;;;1.02;;